createdAt,value
2022-12-03T00:01:19.539Z,102629.53
2022-12-03T00:03:23.935Z,102561.78
2022-12-03T00:06:13.033Z,102657.69
2022-12-03T00:08:53.932Z,102678.16
2022-12-03T00:14:27.819Z,102617.38
2022-12-03T00:16:59.551Z,102512.38
2022-12-03T00:19:29.698Z,102722.00
2022-12-03T00:22:14.390Z,102669.75
2022-12-03T00:25:05.893Z,102543.28
2022-12-03T00:27:36.727Z,102712.53
2022-12-03T00:30:18.824Z,102670.75
2022-12-03T00:33:06.226Z,102695.31
2022-12-03T00:35:51.480Z,102505.59
2022-12-03T00:38:23.543Z,102537.63
2022-12-03T00:40:58.056Z,102690.78
2022-12-03T00:49:24.378Z,102501.75
2022-12-03T00:52:05.430Z,102684.63
2022-12-03T00:54:45.223Z,102671.88
2022-12-03T00:57:21.998Z,102532.75
2022-12-03T00:59:56.800Z,102631.06
2022-12-03T01:02:50.903Z,102520.53
2022-12-03T01:05:23.498Z,102574.78
2022-12-03T01:07:50.441Z,102489.25
2022-12-03T01:10:55.040Z,102682.00
2022-12-03T01:13:24.042Z,102706.59
2022-12-03T01:16:00.916Z,102630.75
2022-12-03T01:18:58.067Z,102677.13
2022-12-03T01:21:41.976Z,102604.28
2022-12-03T01:27:08.434Z,102674.78
2022-12-03T01:32:23.492Z,102610.75
2022-12-03T01:38:13.780Z,102492.13
2022-12-03T01:46:45.713Z,102491.41
2022-12-03T01:49:26.151Z,102499.13
2022-12-03T01:52:12.676Z,102493.06
2022-12-03T01:54:49.402Z,102641.66
2022-12-03T01:57:27.700Z,102674.81
2022-12-03T02:00:23.141Z,102565.38
2022-12-03T02:02:57.884Z,102485.06
2022-12-03T02:05:35.243Z,102494.13
2022-12-03T02:08:25.074Z,102668.09
2022-12-03T02:11:01.187Z,102666.69
2022-12-03T02:13:31.957Z,102612.66
2022-12-03T02:16:07.694Z,102596.41
2022-12-03T02:18:34.917Z,102607.28
2022-12-03T02:21:12.727Z,102488.63
2022-12-03T02:24:22.976Z,102660.75
2022-12-03T02:26:58.070Z,102677.84
2022-12-03T02:29:29.855Z,102665.94
2022-12-03T02:32:13.097Z,102561.69
2022-12-03T02:34:46.818Z,102559.38
2022-12-03T02:37:23.722Z,102492.94
2022-12-03T02:40:01.030Z,102482.72
2022-12-03T02:43:05.249Z,102457.06
2022-12-03T02:46:15.070Z,102660.09
2022-12-03T02:48:45.019Z,102510.66
2022-12-03T02:51:13.670Z,102644.84
2022-12-03T02:53:57.510Z,102613.00
2022-12-03T02:56:40.006Z,102646.50
2022-12-03T02:59:26.589Z,102438.34
2022-12-03T03:02:13.352Z,102607.38
2022-12-03T03:05:02.848Z,102417.19
2022-12-03T03:08:02.718Z,102642.44
2022-12-03T03:10:41.253Z,102654.56
2022-12-03T03:13:13.085Z,102603.13
2022-12-03T03:15:56.489Z,102648.28
2022-12-03T03:18:45.444Z,102485.09
2022-12-03T03:21:17.796Z,102616.25
2022-12-03T03:23:55.034Z,102654.84
2022-12-03T03:26:42.492Z,102459.19
2022-12-03T03:29:13.022Z,102495.31
2022-12-03T03:32:10.550Z,102666.59
2022-12-03T03:34:41.450Z,102485.00
2022-12-03T03:37:39.650Z,102512.88
2022-12-03T03:40:22.174Z,102663.28
2022-12-03T03:42:54.441Z,102657.66
2022-12-03T03:45:34.165Z,102531.41
2022-12-03T03:48:03.985Z,102667.25
2022-12-03T03:50:39.886Z,102655.59
2022-12-03T03:53:10.544Z,102659.28
2022-12-03T03:55:46.751Z,102604.44
2022-12-03T03:58:41.438Z,102654.75
2022-12-03T04:01:17.998Z,102643.16
2022-12-03T04:03:54.013Z,102527.44
2022-12-03T04:06:36.967Z,102613.47
2022-12-03T04:09:13.951Z,102604.72
2022-12-03T04:11:50.837Z,102619.22
2022-12-03T04:14:35.469Z,102543.03
2022-12-03T04:17:13.061Z,102513.22
2022-12-03T04:19:46.908Z,102464.22
2022-12-03T04:22:23.159Z,102465.50
2022-12-03T04:27:33.402Z,102494.72
2022-12-03T04:30:24.733Z,102648.56
2022-12-03T04:33:09.828Z,102561.31
2022-12-03T04:38:47.546Z,102640.81
2022-12-03T04:41:27.075Z,102645.44
2022-12-03T04:44:19.079Z,102513.41
2022-12-03T04:53:18.857Z,102615.69
2022-12-03T04:56:18.253Z,102438.00
2022-12-03T04:59:06.638Z,102443.13
2022-12-03T05:01:55.989Z,102437.09
2022-12-03T05:04:41.397Z,102424.66
2022-12-03T05:07:09.657Z,102549.22
2022-12-03T05:09:37.951Z,102572.88
2022-12-03T05:12:08.722Z,102473.31
2022-12-03T05:14:43.877Z,102576.72
2022-12-03T05:17:11.818Z,102554.84
2022-12-03T05:19:46.912Z,102636.94
2022-12-03T05:22:17.264Z,102468.78
2022-12-03T05:25:02.477Z,102621.44
2022-12-03T05:27:56.013Z,102568.41
2022-12-03T05:30:35.378Z,102437.25
2022-12-03T05:35:52.253Z,102604.56
2022-12-03T05:38:27.965Z,102586.22
2022-12-03T05:41:22.417Z,102409.63
2022-12-03T05:44:35.125Z,102539.88
2022-12-03T05:50:05.981Z,102560.09
2022-12-03T05:58:48.014Z,102412.97
2022-12-03T06:02:08.092Z,102412.31
2022-12-03T06:04:41.455Z,102611.72
2022-12-03T06:07:22.705Z,102450.13
2022-12-03T06:10:04.409Z,102451.41
2022-12-03T06:12:38.854Z,102540.59
2022-12-03T06:15:17.113Z,102390.66
2022-12-03T06:17:44.287Z,102431.81
2022-12-03T06:20:27.497Z,102581.28
2022-12-03T06:22:56.282Z,102499.38
2022-12-03T06:25:34.721Z,102603.59
2022-12-03T06:28:06.021Z,102595.56
2022-12-03T06:33:23.599Z,102545.16
2022-12-03T06:39:20.304Z,102381.88
2022-12-03T06:41:51.162Z,102578.75
2022-12-03T06:44:20.918Z,102463.53
2022-12-03T06:46:55.037Z,102592.31
2022-12-03T06:49:25.239Z,102402.53
2022-12-03T06:52:07.249Z,102501.56
2022-12-03T06:54:45.670Z,102507.31
2022-12-03T06:57:17.856Z,102419.25
2022-12-03T06:59:45.405Z,102506.00
2022-12-03T07:02:15.348Z,102519.78
2022-12-03T07:04:49.962Z,102540.47
2022-12-03T07:07:31.640Z,102602.59
2022-12-03T07:10:11.954Z,102530.16
2022-12-03T07:12:44.972Z,102585.25
2022-12-03T07:15:12.001Z,102407.50
2022-12-03T07:17:38.873Z,102383.16
2022-12-03T07:20:11.877Z,102557.53
2022-12-03T07:22:45.667Z,102399.09
2022-12-03T07:25:23.842Z,102558.53
2022-12-03T07:27:52.611Z,102580.22
2022-12-03T07:30:19.606Z,102513.50
2022-12-03T07:32:48.613Z,102429.78
2022-12-03T07:35:20.271Z,102613.47
2022-12-03T07:37:49.218Z,102524.53
2022-12-03T07:40:28.295Z,102544.84
2022-12-03T07:43:02.319Z,102394.81
2022-12-03T07:45:41.939Z,102593.81
2022-12-03T07:48:13.588Z,102499.91
2022-12-03T07:50:43.848Z,102503.06
2022-12-03T07:53:16.684Z,102424.25
2022-12-03T07:55:43.497Z,102396.81
2022-12-03T07:58:34.768Z,102539.59
2022-12-03T08:01:11.525Z,102396.38
2022-12-03T08:03:41.364Z,102398.50
2022-12-03T08:06:08.122Z,102378.31
2022-12-03T08:08:45.373Z,102384.97
2022-12-03T08:11:18.606Z,102543.41
2022-12-03T08:13:56.670Z,102551.59
2022-12-03T08:16:23.451Z,102500.72
2022-12-03T08:18:54.596Z,102444.81
2022-12-03T08:21:27.133Z,102391.13
2022-12-03T08:24:12.185Z,102585.41
2022-12-03T08:26:39.417Z,102434.84
2022-12-03T08:29:13.160Z,102571.47
2022-12-03T08:31:40.993Z,102466.59
2022-12-03T08:34:17.846Z,102561.56
2022-12-03T08:36:46.289Z,102577.81
2022-12-03T08:39:28.980Z,102562.19
2022-12-03T08:42:01.826Z,102577.81
2022-12-03T08:44:30.554Z,102578.06
2022-12-03T08:47:07.164Z,102570.59
2022-12-03T08:49:33.891Z,102526.47
2022-12-03T08:52:11.142Z,102576.53
2022-12-03T08:54:39.485Z,102565.66
2022-12-03T08:57:25.151Z,102553.97
2022-12-03T08:59:55.905Z,102551.69
2022-12-03T09:02:32.260Z,102572.94
2022-12-03T09:05:03.129Z,102568.69
2022-12-03T09:07:30.241Z,102564.34
2022-12-03T09:10:03.393Z,102580.22
2022-12-03T09:12:30.752Z,102582.06
2022-12-03T09:14:58.097Z,102548.03
2022-12-03T09:17:24.984Z,102595.72
2022-12-03T09:19:51.984Z,102590.38
2022-12-03T09:22:20.386Z,102496.91
2022-12-03T09:24:47.388Z,102572.31
2022-12-03T09:27:15.567Z,102575.44
2022-12-03T09:29:42.234Z,102535.00
2022-12-03T09:32:11.476Z,102486.63
2022-12-03T09:34:41.951Z,102388.16
2022-12-03T09:37:08.863Z,102571.56
2022-12-03T09:39:35.963Z,102444.69
2022-12-03T09:42:03.156Z,102516.19
2022-12-03T09:44:35.682Z,102470.69
2022-12-03T09:47:04.670Z,102451.59
2022-12-03T09:49:32.965Z,102574.69
2022-12-03T09:52:06.361Z,102527.22
2022-12-03T09:54:34.184Z,102570.63
2022-12-03T09:57:03.756Z,102554.28
2022-12-03T09:59:33.686Z,102557.88
2022-12-03T10:03:03.928Z,102471.25
2022-12-03T10:06:16.363Z,102448.56
2022-12-03T10:08:56.129Z,102380.28
2022-12-03T10:11:29.261Z,102451.75
2022-12-03T10:13:57.670Z,102563.88
2022-12-03T10:16:27.018Z,102561.19
2022-12-03T10:18:55.907Z,102542.94
2022-12-03T10:21:30.637Z,102560.03
2022-12-03T10:24:21.145Z,102559.91
2022-12-03T10:26:49.547Z,102542.66
2022-12-03T10:29:19.874Z,102528.53
2022-12-03T10:31:55.107Z,102545.25
2022-12-03T10:34:27.006Z,102469.66
2022-12-03T10:37:11.734Z,102549.19
2022-12-03T10:39:59.262Z,102544.41
2022-12-03T10:42:27.172Z,102498.63
2022-12-03T10:45:24.080Z,102517.00
2022-12-03T10:48:11.392Z,102535.81
2022-12-03T10:50:46.328Z,102532.78
2022-12-03T10:53:13.303Z,102529.75
2022-12-03T10:55:42.225Z,102519.34
2022-12-03T10:58:17.708Z,102492.91
2022-12-03T11:00:44.578Z,102517.47
2022-12-03T11:03:21.558Z,102526.63
2022-12-03T11:05:49.433Z,102520.50
2022-12-03T11:08:18.569Z,102511.75
2022-12-03T11:10:46.176Z,102513.31
2022-12-03T11:13:44.578Z,102516.84
2022-12-03T11:16:11.808Z,102474.47
2022-12-03T11:19:02.021Z,102505.69
2022-12-03T11:21:29.203Z,102498.09
2022-12-03T11:24:27.087Z,102489.72
2022-12-03T11:27:19.069Z,102493.22
2022-12-03T11:29:58.029Z,102485.94
2022-12-03T11:33:07.690Z,102491.00
2022-12-03T11:36:13.418Z,102448.38
2022-12-03T11:38:57.423Z,102476.16
2022-12-03T11:41:30.368Z,102476.06
2022-12-03T11:44:17.489Z,102468.84
2022-12-03T11:46:47.112Z,102480.50
2022-12-03T11:49:34.528Z,102466.56
2022-12-03T11:52:11.757Z,102464.81
2022-12-03T11:54:38.512Z,102463.88
2022-12-03T11:57:25.473Z,102464.25
2022-12-03T12:00:18.267Z,102446.44
2022-12-03T12:02:45.336Z,102451.50
2022-12-03T12:05:21.379Z,102425.97
2022-12-03T12:07:50.119Z,102371.84
2022-12-03T12:10:43.451Z,102443.50
2022-12-03T12:13:51.077Z,102435.56
2022-12-03T12:16:51.565Z,102436.84
2022-12-03T12:19:39.707Z,102433.44
2022-12-03T12:22:18.490Z,102425.53
2022-12-03T12:24:49.359Z,102410.38
2022-12-03T12:27:18.738Z,102380.84
2022-12-03T12:29:50.796Z,102366.03
2022-12-03T12:32:21.313Z,102405.47
2022-12-03T12:34:50.307Z,102399.75
2022-12-03T12:37:22.871Z,102377.16
2022-12-03T12:39:54.252Z,102370.25
2022-12-03T12:42:29.634Z,102406.38
2022-12-03T12:44:59.831Z,102400.94
2022-12-03T12:47:28.733Z,102399.75
2022-12-03T12:49:56.541Z,102369.81
2022-12-03T12:52:24.515Z,102387.13
2022-12-03T12:54:52.567Z,102345.03
2022-12-03T12:57:24.794Z,102381.88
2022-12-03T12:59:53.962Z,102377.63
2022-12-03T13:02:41.154Z,102239.78
2022-12-03T13:05:11.730Z,102308.50
2022-12-03T13:07:41.635Z,102391.16
2022-12-03T13:10:36.105Z,102390.38
2022-12-03T13:13:17.596Z,102375.34
2022-12-03T13:15:47.523Z,102387.78
2022-12-03T13:18:24.542Z,102322.25
2022-12-03T13:20:51.402Z,102372.94
2022-12-03T13:23:27.404Z,102384.47
2022-12-03T13:26:02.005Z,102383.06
2022-12-03T13:28:32.169Z,102391.94
2022-12-03T13:31:15.788Z,102345.78
2022-12-03T13:33:42.799Z,102344.09
2022-12-03T13:36:14.773Z,102375.47
2022-12-03T13:38:42.474Z,102377.38
2022-12-03T13:41:14.756Z,102353.84
2022-12-03T13:43:44.492Z,102349.63
2022-12-03T13:46:16.646Z,102301.53
2022-12-03T13:48:43.484Z,102376.28
2022-12-03T13:51:25.888Z,102368.78
2022-12-03T13:53:53.515Z,102350.91
2022-12-03T13:56:27.493Z,102337.66
2022-12-03T13:58:56.359Z,102304.09
2022-12-03T14:01:23.634Z,102367.44
2022-12-03T14:03:52.747Z,102261.44
2022-12-03T14:06:19.432Z,102361.53
2022-12-03T14:08:46.388Z,102335.63
2022-12-03T14:11:13.195Z,102359.88
2022-12-03T14:13:41.308Z,102299.59
2022-12-03T14:16:08.156Z,102365.38
2022-12-03T14:18:34.873Z,102352.13
2022-12-03T14:21:01.649Z,102249.53
2022-12-03T14:23:28.359Z,102319.56
2022-12-03T14:25:55.385Z,102312.75
2022-12-03T14:28:22.107Z,102360.31
2022-12-03T14:30:50.295Z,102349.25
2022-12-03T14:33:17.242Z,102368.16
2022-12-03T14:35:43.993Z,102341.88
2022-12-03T14:38:10.872Z,102334.81
2022-12-03T14:40:37.599Z,102358.38
2022-12-03T14:43:04.230Z,102300.00
2022-12-03T14:45:31.214Z,102347.41
2022-12-03T14:47:59.683Z,102355.97
2022-12-03T14:50:26.620Z,102316.44
2022-12-03T14:52:55.603Z,102380.50
2022-12-03T14:55:22.357Z,102322.16
2022-12-03T14:57:49.135Z,102350.84
2022-12-03T15:00:17.469Z,102342.25
2022-12-03T15:02:47.289Z,102359.03
2022-12-03T15:05:16.021Z,102359.94
2022-12-03T15:07:43.859Z,102337.38
2022-12-03T15:10:11.450Z,102335.22
2022-12-03T15:12:38.122Z,102367.94
2022-12-03T15:15:06.009Z,102346.47
2022-12-03T15:17:32.768Z,102352.16
2022-12-03T15:19:59.821Z,102309.31
2022-12-03T15:22:29.028Z,102338.19
2022-12-03T15:24:55.730Z,102347.75
2022-12-03T15:27:22.612Z,102343.53
2022-12-03T15:29:49.597Z,102317.25
2022-12-03T15:32:18.388Z,102180.94
2022-12-03T15:34:45.317Z,102358.91
2022-12-03T15:37:12.042Z,102368.38
2022-12-03T15:39:48.421Z,102365.16
2022-12-03T15:42:15.603Z,102356.72
2022-12-03T15:44:42.230Z,102295.97
2022-12-03T15:47:08.958Z,102356.72
2022-12-03T15:49:35.673Z,102296.41
2022-12-03T15:52:02.457Z,102319.47
2022-12-03T15:54:29.345Z,102207.00
2022-12-03T15:56:57.796Z,102365.75
2022-12-03T15:59:24.532Z,102351.00
2022-12-03T16:01:51.470Z,102278.34
2022-12-03T16:04:20.637Z,102345.75
2022-12-03T16:06:47.446Z,102344.38
2022-12-03T16:09:14.157Z,102172.16
2022-12-03T16:11:53.664Z,102347.81
2022-12-03T16:14:21.905Z,102353.69
2022-12-03T16:16:50.405Z,102142.56
2022-12-03T16:19:17.120Z,102333.69
2022-12-03T16:21:46.071Z,102330.88
2022-12-03T16:24:13.031Z,102356.34
2022-12-03T16:26:39.796Z,102324.81
2022-12-03T16:29:06.704Z,102188.63
2022-12-03T16:31:37.743Z,102332.66
2022-12-03T16:34:04.815Z,102266.88
2022-12-03T16:36:31.578Z,102193.78
2022-12-03T16:38:59.480Z,102199.59
2022-12-03T16:41:29.231Z,102259.34
2022-12-03T16:43:56.476Z,102166.00
2022-12-03T16:46:23.220Z,102356.56
2022-12-03T16:48:52.174Z,102207.00
2022-12-03T16:51:19.669Z,102296.91
2022-12-03T16:53:53.249Z,102341.09
2022-12-03T16:56:22.019Z,102343.91
2022-12-03T16:58:49.046Z,102321.31
2022-12-03T17:01:15.781Z,102343.22
2022-12-03T17:03:44.151Z,102327.16
2022-12-03T17:06:12.295Z,102349.38
2022-12-03T17:08:41.048Z,102310.19
2022-12-03T17:11:13.048Z,102151.09
2022-12-03T17:13:39.923Z,102294.94
2022-12-03T17:16:07.483Z,102184.19
2022-12-03T17:18:41.674Z,102229.53
2022-12-03T17:21:09.752Z,102241.41
2022-12-03T17:23:37.794Z,102336.31
2022-12-03T17:26:05.038Z,102335.38
2022-12-03T17:28:31.715Z,102335.53
2022-12-03T17:30:58.638Z,102337.56
2022-12-03T17:33:25.553Z,102337.38
2022-12-03T17:35:52.687Z,102320.19
2022-12-03T17:38:20.406Z,102334.19
2022-12-03T17:40:48.457Z,102277.22
2022-12-03T17:43:16.366Z,102336.84
2022-12-03T17:45:43.188Z,102311.41
2022-12-03T17:48:11.224Z,102289.19
2022-12-03T17:50:38.450Z,102290.81
2022-12-03T17:53:05.216Z,102273.88
2022-12-03T17:55:38.529Z,102215.16
2022-12-03T17:58:10.909Z,102329.66
2022-12-03T18:00:37.960Z,102220.75
2022-12-03T18:03:08.267Z,102325.97
2022-12-03T18:05:50.938Z,102104.22
2022-12-03T18:08:20.882Z,102254.63
2022-12-03T18:10:47.858Z,102220.31
2022-12-03T18:13:23.137Z,102335.94
2022-12-03T18:15:50.628Z,102272.81
2022-12-03T18:18:17.698Z,102125.72
2022-12-03T18:20:44.667Z,102108.91
2022-12-03T18:23:12.293Z,102313.63
2022-12-03T18:25:39.356Z,102290.97
2022-12-03T18:28:06.788Z,102343.56
2022-12-03T18:30:35.412Z,102208.22
2022-12-03T18:33:02.129Z,102231.41
2022-12-03T18:35:29.225Z,102324.53
2022-12-03T18:37:55.895Z,102324.88
2022-12-03T18:40:24.744Z,102300.38
2022-12-03T18:42:53.475Z,102232.00
2022-12-03T18:45:20.426Z,102311.47
2022-12-03T18:47:48.998Z,102309.13
2022-12-03T18:50:18.106Z,102297.59
2022-12-03T18:52:44.767Z,102297.53
2022-12-03T18:55:16.949Z,102271.81
2022-12-03T18:57:43.631Z,102249.28
2022-12-03T19:00:13.841Z,102317.41
2022-12-03T19:05:29.584Z,102235.41
2022-12-03T19:07:56.572Z,102165.28
2022-12-03T19:10:23.910Z,102230.81
2022-12-03T19:12:52.278Z,102291.91
2022-12-03T19:15:20.108Z,102293.22
2022-12-03T19:17:48.299Z,102292.19
2022-12-03T19:20:15.271Z,102299.38
2022-12-03T19:22:44.565Z,102292.38
2022-12-03T19:25:11.872Z,102300.84
2022-12-03T19:27:41.544Z,102270.91
2022-12-03T19:30:12.820Z,102292.09
2022-12-03T19:32:39.716Z,102293.13
2022-12-03T19:35:07.141Z,102268.91
2022-12-03T19:37:34.453Z,102185.13
2022-12-03T19:40:03.426Z,102263.09
2022-12-03T19:42:30.188Z,102163.06
2022-12-03T19:44:58.322Z,102281.78
2022-12-03T19:47:25.042Z,102287.69
2022-12-03T19:49:53.904Z,102162.94
2022-12-03T19:52:20.866Z,102271.56
2022-12-03T19:54:47.885Z,102248.78
2022-12-03T19:57:22.867Z,102254.78
2022-12-03T19:59:50.382Z,102146.09
2022-12-03T20:02:17.236Z,102189.84
2022-12-03T20:04:43.908Z,102118.94
2022-12-03T20:07:10.950Z,102271.38
2022-12-03T20:09:37.634Z,102160.31
2022-12-03T20:12:05.121Z,102268.78
2022-12-03T20:14:34.050Z,102133.72
2022-12-03T20:17:01.266Z,102158.28
2022-12-03T20:19:27.937Z,102281.66
2022-12-03T20:22:00.762Z,102217.41
2022-12-03T20:24:31.176Z,102295.69
2022-12-03T20:26:58.052Z,102280.00
2022-12-03T20:29:24.857Z,102304.88
2022-12-03T20:31:53.168Z,102289.03
2022-12-03T20:34:20.012Z,102216.69
2022-12-03T20:36:46.757Z,102281.66
2022-12-03T20:39:13.437Z,102231.28
2022-12-03T20:41:40.169Z,102121.44
2022-12-03T20:44:07.070Z,102164.09
2022-12-03T20:46:34.525Z,102257.06
2022-12-03T20:49:04.192Z,102279.16
2022-12-03T20:51:31.455Z,102114.41
2022-12-03T20:54:01.384Z,102147.56
2022-12-03T20:56:31.662Z,102223.13
2022-12-03T20:59:00.142Z,102247.88
2022-12-03T21:01:27.887Z,102242.28
2022-12-03T21:03:56.266Z,102280.97
2022-12-03T21:06:26.490Z,102260.09
2022-12-03T21:08:55.871Z,102204.44
2022-12-03T21:11:25.504Z,102190.66
2022-12-03T21:13:54.238Z,102252.13
2022-12-03T21:16:39.316Z,102271.31
2022-12-03T21:19:10.438Z,102273.00
2022-12-03T21:21:39.518Z,102250.78
2022-12-03T21:24:06.780Z,102228.19
2022-12-03T21:26:33.941Z,102271.75
2022-12-03T21:29:01.074Z,102078.13
2022-12-03T21:31:28.505Z,102267.97
2022-12-03T21:33:59.526Z,102277.28
2022-12-03T21:36:26.453Z,102276.44
2022-12-03T21:39:10.281Z,102117.69
2022-12-03T21:41:37.615Z,102149.53
2022-12-03T21:44:04.768Z,102261.50
2022-12-03T21:47:09.453Z,102134.97
2022-12-03T21:49:21.356Z,102271.81
2022-12-03T21:51:48.368Z,102262.94
2022-12-03T21:54:16.765Z,102203.09
2022-12-03T21:56:45.782Z,102110.63
2022-12-03T21:59:13.231Z,102261.81
2022-12-03T22:01:45.582Z,102269.69
2022-12-03T22:04:13.848Z,102260.69
2022-12-03T22:06:40.840Z,102134.66
2022-12-03T22:09:09.445Z,102170.09
2022-12-03T22:11:37.684Z,102158.44
2022-12-03T22:14:04.592Z,102099.78
2022-12-03T22:16:34.499Z,102200.94
2022-12-03T22:19:01.687Z,102127.34
2022-12-03T22:21:28.561Z,102197.34
2022-12-03T22:23:56.240Z,102269.16
2022-12-03T22:26:23.400Z,102048.00
2022-12-03T22:28:51.904Z,102064.19
2022-12-03T22:31:19.100Z,102074.16
2022-12-03T22:33:47.254Z,102204.59
2022-12-03T22:36:20.510Z,102237.75
2022-12-03T22:38:50.559Z,102221.19
2022-12-03T22:41:19.034Z,102258.06
2022-12-03T22:43:45.961Z,102158.66
2022-12-03T22:46:17.642Z,102182.06
2022-12-03T22:48:47.154Z,102179.47
2022-12-03T22:51:16.125Z,102144.59
2022-12-03T22:53:43.625Z,102224.34
2022-12-03T22:56:10.737Z,102134.69
2022-12-03T22:58:39.105Z,102245.72
2022-12-03T23:01:07.914Z,102237.59
2022-12-03T23:03:36.583Z,102204.84
2022-12-03T23:06:09.536Z,102244.06
2022-12-03T23:08:37.253Z,102126.41
2022-12-03T23:11:04.390Z,102234.56
2022-12-03T23:13:31.233Z,102240.59
2022-12-03T23:15:58.106Z,102200.25
2022-12-03T23:18:24.977Z,102234.66
2022-12-03T23:20:55.899Z,102224.00
2022-12-03T23:23:25.425Z,102215.34
2022-12-03T23:25:59.321Z,102233.25
2022-12-03T23:28:27.613Z,102228.44
2022-12-03T23:30:54.621Z,102200.34
2022-12-03T23:33:23.347Z,102222.25
2022-12-03T23:35:53.800Z,102166.78
2022-12-03T23:38:22.900Z,102215.75
2022-12-03T23:40:49.691Z,102149.03
2022-12-03T23:43:17.876Z,102220.84
2022-12-03T23:45:45.028Z,102210.53
2022-12-03T23:48:12.005Z,102168.53
2022-12-03T23:50:41.936Z,102227.16
2022-12-03T23:53:10.280Z,102209.66
2022-12-03T23:55:39.299Z,102219.44
2022-12-03T23:58:06.056Z,102211.69
